Monroe, Ohio
Current Conditions -  °F | °C
As of 3:15 PM on Thursday 29 Jan 2015 (Local Time) from KMWO Reporting Station
Overcast Overcast  
Wind Chill: 29°   Ceiling: 1500
Heat Index: 39°   Visibility: 10mi
Dew Point: 32°   Wind: 22mph
Humidity: 76%   Direction: 280°W
Pressure: 29.92"   Gusts: 29mph
Location:  39.45°N, 84.35°W
Report Text: KMWO 292015Z AUTO 28019G25KT 10SM OVC015 04/00 A2992 RMK AO2 T00410002
Loading
Personal Weather Stations






























Interactive Weather Map New forecast layout! Learn more

10-Day Weather Forecast

Advertisements
Track Severe Weather on mobile